Terminal Aerodrome Forecast
Issued by NWS

Home | Current Version | Previous Version | Text Only | Print | Product List | Glossary On
Versions: 1 2 3 4 5 6 7 8 9 10 11 12 13 14 15 16 17 18 19 20 21
000
FTUS43 KFGF 170520
TAFBJI
TAF
KBJI 170520Z 1706/1806 20004KT 4SM BR OVC008
      TEMPO 1707/1711 1SM BR OVC003
     FM171600 24006KT P6SM SCT015
     FM172000 23007KT P6SM SCT250
     FM180000 21006KT P6SM FEW250=

USA.gov is the U.S. government's official web portal to all federal, state and local government web resources and services.